Time;durP1;ratioP1;P1;durP2;ratioP2;P2;SDS_P1;SDS_P2;PMS_P1;PMS_P2;Temp;Humidity;BMP_temperature;BMP_pressure;BME280_temperature;BME280_humidity;BME280_pressure;Samples;Min_cycle;Max_cycle;Signal;HPM_P1;HPM_P2
2022/11/08 00:01:59;;;;;;;1.70;1.37;;;12.60;98.20;;;;;;4970890;28;20488;-76
2022/11/08 00:04:26;;;;;;;1.57;1.07;;;12.70;98.20;;;;;;4968224;28;20466;-76
2022/11/08 00:15:08;;;;;;;1.50;1.00;;;12.70;98.20;;;;;;4968222;28;20470;-76
2022/11/08 00:17:36;;;;;;;1.53;1.00;;;12.70;98.20;;;;;;4983115;28;20484;-76
2022/11/08 00:20:03;;;;;;;1.60;1.00;;;12.70;98.20;;;;;;4975313;28;20576;-75
2022/11/08 00:22:31;;;;;;;1.57;1.00;;;12.70;98.20;;;;;;4976528;28;20493;-76
2022/11/08 00:24:58;;;;;;;1.53;1.03;;;12.70;98.20;;;;;;4958142;28;20840;-76
2022/11/08 00:27:27;;;;;;;1.50;1.00;;;12.70;98.20;;;;;;4980438;28;20494;-76
2022/11/08 00:29:54;;;;;;;1.57;1.00;;;12.80;98.20;;;;;;4977985;28;20482;-76
2022/11/08 00:32:22;;;;;;;1.50;1.10;;;12.80;98.20;;;;;;4971535;28;20491;-76
2022/11/08 00:34:49;;;;;;;1.57;1.00;;;12.90;98.20;;;;;;4960157;28;20531;-76
2022/11/08 00:37:17;;;;;;;1.60;1.00;;;12.90;98.20;;;;;;4964600;28;20523;-76
2022/11/08 00:39:44;;;;;;;1.57;1.00;;;12.90;98.20;;;;;;4960521;28;20483;-77
2022/11/08 00:42:11;;;;;;;1.60;1.10;;;12.90;98.20;;;;;;4974465;28;20484;-76
2022/11/08 00:44:39;;;;;;;1.60;1.10;;;12.90;98.20;;;;;;4971269;28;20462;-76
2022/11/08 00:47:06;;;;;;;1.57;1.10;;;12.90;98.20;;;;;;4961164;28;20495;-76
2022/11/08 00:49:33;;;;;;;1.50;1.00;;;12.90;98.20;;;;;;4971154;28;20976;-76
2022/11/08 00:52:00;;;;;;;1.57;1.10;;;13.00;98.20;;;;;;4965004;28;20493;-76
2022/11/08 00:54:26;;;;;;;1.53;1.00;;;13.00;98.20;;;;;;4976952;28;20465;-77
2022/11/08 00:56:53;;;;;;;1.53;1.00;;;13.00;98.20;;;;;;4971610;28;20488;-76
2022/11/08 00:59:20;;;;;;;1.57;1.00;;;13.00;98.20;;;;;;4979114;28;20489;-76
2022/11/08 01:01:48;;;;;;;1.57;1.00;;;13.10;98.20;;;;;;4976838;28;20486;-77
2022/11/08 01:04:18;;;;;;;1.53;1.00;;;13.10;98.20;;;;;;4974837;28;20573;-76
2022/11/08 01:06:45;;;;;;;1.50;1.10;;;13.10;98.20;;;;;;4972624;28;20519;-76
2022/11/08 01:09:13;;;;;;;1.60;1.10;;;13.20;98.20;;;;;;4977056;28;20478;-76
2022/11/08 01:11:44;;;;;;;1.60;1.10;;;13.20;98.20;;;;;;4957431;28;20476;-76
2022/11/08 01:14:11;;;;;;;1.53;1.00;;;13.30;98.20;;;;;;4980662;28;20558;-76
2022/11/08 01:16:38;;;;;;;1.57;1.10;;;13.30;98.20;;;;;;4968093;28;20481;-76
2022/11/08 01:19:06;;;;;;;1.60;1.10;;;13.30;98.20;;;;;;4978647;28;20476;-76
2022/11/08 01:21:33;;;;;;;1.53;1.10;;;13.30;98.20;;;;;;4966573;28;21070;-75
2022/11/08 01:24:00;;;;;;;1.53;1.00;;;13.40;98.20;;;;;;4970622;28;21151;-76
2022/11/08 01:26:29;;;;;;;1.53;0.90;;;13.40;98.20;;;;;;4957565;28;20948;-76
2022/11/08 01:28:56;;;;;;;1.57;1.10;;;13.40;98.20;;;;;;4993174;28;20473;-76
2022/11/08 01:31:25;;;;;;;1.60;1.10;;;13.50;98.20;;;;;;4960007;28;20477;-77
2022/11/08 01:33:53;;;;;;;1.57;1.00;;;13.50;98.20;;;;;;4974550;28;20467;-78
2022/11/08 01:36:23;;;;;;;1.50;1.00;;;13.50;98.20;;;;;;4955823;28;20898;-77
2022/11/08 01:38:50;;;;;;;1.60;1.00;;;13.50;98.20;;;;;;4978293;28;20465;-79
2022/11/08 01:41:19;;;;;;;2.13;1.93;;;13.60;98.20;;;;;;4956396;28;20475;-78
2022/11/08 01:43:47;;;;;;;1.53;1.00;;;13.60;98.20;;;;;;4987865;28;20465;-77
2022/11/08 01:46:32;;;;;;;1.50;1.00;;;13.60;98.20;;;;;;4962981;28;20503;-78
2022/11/08 01:49:08;;;;;;;1.57;1.00;;;13.70;98.20;;;;;;4995942;28;20842;-78
2022/11/08 01:51:41;;;;;;;1.57;1.00;;;13.70;98.20;;;;;;4973160;28;20491;-78
2022/11/08 01:54:13;;;;;;;1.53;1.00;;;13.80;98.20;;;;;;4979583;28;20473;-76
2022/11/08 01:56:41;;;;;;;1.53;1.00;;;13.80;98.20;;;;;;4971012;28;20484;-77
2022/11/08 01:59:11;;;;;;;1.57;1.00;;;13.80;98.20;;;;;;4994334;28;20473;-78
2022/11/08 02:01:38;;;;;;;1.60;1.00;;;13.80;98.20;;;;;;4974347;28;20483;-77
2022/11/08 02:04:06;;;;;;;1.57;1.10;;;13.80;98.20;;;;;;4982612;28;20849;-77
2022/11/08 02:06:37;;;;;;;1.53;1.00;;;13.80;98.20;;;;;;4965059;28;20480;-78
2022/11/08 02:09:08;;;;;;;1.80;1.60;;;13.80;98.20;;;;;;4981892;28;21023;-77
2022/11/08 02:11:36;;;;;;;1.60;1.10;;;13.70;98.20;;;;;;4962695;28;21096;-77
2022/11/08 02:14:04;;;;;;;1.50;1.10;;;13.80;98.20;;;;;;4978281;28;20547;-78
2022/11/08 02:16:31;;;;;;;1.60;1.20;;;13.70;98.20;;;;;;4967883;28;20902;-78
2022/11/08 02:18:58;;;;;;;1.57;1.00;;;13.70;98.20;;;;;;4995434;28;20462;-79
2022/11/08 02:21:29;;;;;;;1.53;1.00;;;13.70;98.20;;;;;;4971418;28;20477;-77
2022/11/08 02:24:00;;;;;;;1.60;1.10;;;13.70;98.20;;;;;;4985031;28;20951;-77
2022/11/08 02:26:31;;;;;;;1.53;1.10;;;13.70;98.20;;;;;;4962357;28;20558;-76
2022/11/08 02:28:58;;;;;;;1.57;1.07;;;13.70;98.20;;;;;;4986593;28;20489;-79
2022/11/08 02:31:24;;;;;;;1.50;1.00;;;13.70;98.20;;;;;;4976395;28;20482;-79
2022/11/08 02:33:51;;;;;;;1.53;1.00;;;13.70;98.20;;;;;;4993625;28;20462;-78
2022/11/08 02:36:21;;;;;;;1.57;1.00;;;13.70;98.20;;;;;;4958408;28;20842;-77
2022/11/08 02:38:52;;;;;;;1.60;1.10;;;13.70;98.20;;;;;;4977993;28;20455;-76
2022/11/08 02:41:20;;;;;;;1.57;1.00;;;13.70;98.20;;;;;;4955832;28;20648;-76
2022/11/08 02:43:47;;;;;;;1.50;1.00;;;13.70;98.20;;;;;;4991411;28;20473;-76
2022/11/08 02:46:14;;;;;;;1.50;1.00;;;13.70;98.20;;;;;;4950923;28;20887;-77
2022/11/08 02:48:41;;;;;;;1.57;1.00;;;13.70;98.20;;;;;;4982475;28;21319;-76
2022/11/08 02:51:07;;;;;;;1.53;1.00;;;13.70;98.20;;;;;;4959981;28;21010;-78
2022/11/08 02:53:34;;;;;;;1.57;1.00;;;13.70;98.20;;;;;;4980152;28;20465;-76
2022/11/08 02:56:01;;;;;;;1.53;1.00;;;13.70;98.20;;;;;;4953081;28;20960;-76
2022/11/08 02:58:29;;;;;;;1.53;1.00;;;13.60;98.20;;;;;;4984777;28;20462;-77
2022/11/08 03:00:56;;;;;;;1.60;1.10;;;13.50;98.20;;;;;;4954792;28;20812;-77
2022/11/08 03:03:23;;;;;;;1.53;1.00;;;13.50;98.20;;;;;;4981573;28;20467;-77
2022/11/08 03:05:50;;;;;;;1.53;1.00;;;13.40;98.20;;;;;;4961866;23;20470;-88
2022/11/08 03:08:17;;;;;;;1.60;1.03;;;13.30;98.20;;;;;;4972380;28;20498;-88
2022/11/08 03:10:46;;;;;;;1.60;1.00;;;13.30;98.20;;;;;;4956366;28;20513;-89
2022/11/08 03:13:16;;;;;;;1.50;1.00;;;13.20;98.20;;;;;;4944883;28;20526;-88
2022/11/08 03:15:44;;;;;;;1.57;1.00;;;13.20;98.20;;;;;;4974931;28;20974;-90
2022/11/08 03:18:11;;;;;;;1.57;1.00;;;13.10;98.20;;;;;;4975624;28;20860;-90
2022/11/08 03:20:38;;;;;;;1.53;1.03;;;13.10;98.20;;;;;;4971108;28;20474;-89
2022/11/08 03:23:06;;;;;;;1.50;1.03;;;13.10;98.20;;;;;;4957723;28;20490;-90
2022/11/08 03:25:33;;;;;;;1.57;1.00;;;13.10;98.20;;;;;;4960106;28;21158;-89
2022/11/08 03:28:02;;;;;;;1.60;1.10;;;13.00;98.20;;;;;;4983967;23;20482;-77
2022/11/08 03:30:29;;;;;;;1.60;1.00;;;13.00;98.20;;;;;;4995986;28;20473;-78
2022/11/08 03:32:57;;;;;;;1.57;1.10;;;13.00;98.20;;;;;;4997516;28;20595;-77
2022/11/08 03:35:24;;;;;;;1.53;1.00;;;12.90;98.20;;;;;;4996982;28;20460;-78
2022/11/08 03:37:51;;;;;;;1.60;1.10;;;12.90;98.20;;;;;;5013870;28;20505;-78
2022/11/08 03:40:18;;;;;;;1.60;1.10;;;12.90;98.20;;;;;;5014573;28;20464;-78
2022/11/08 03:42:46;;;;;;;1.53;1.00;;;12.80;98.20;;;;;;4999597;28;20488;-77
2022/11/08 03:45:13;;;;;;;1.57;1.03;;;12.80;98.20;;;;;;4992860;28;20456;-78
2022/11/08 03:47:42;;;;;;;1.50;1.00;;;12.70;98.20;;;;;;5011858;28;20494;-77
2022/11/08 03:50:12;;;;;;;1.57;1.10;;;12.70;98.20;;;;;;5013301;28;20467;-78
2022/11/08 03:52:42;;;;;;;1.60;1.10;;;12.70;98.20;;;;;;5000959;28;20495;-78
2022/11/08 03:55:10;;;;;;;1.50;1.10;;;12.70;98.20;;;;;;4994666;28;20471;-77
2022/11/08 03:57:37;;;;;;;1.60;1.23;;;12.60;98.20;;;;;;4996624;28;20556;-78
2022/11/08 04:00:06;;;;;;;1.53;1.00;;;12.60;98.20;;;;;;5013136;28;21067;-77
2022/11/08 04:02:33;;;;;;;1.50;1.00;;;12.60;98.20;;;;;;5006781;28;20476;-77
2022/11/08 04:05:00;;;;;;;1.60;1.10;;;12.60;98.20;;;;;;5015648;28;20475;-77
2022/11/08 04:07:28;;;;;;;1.53;1.00;;;12.50;98.20;;;;;;5014608;28;20479;-78
2022/11/08 04:09:55;;;;;;;1.50;1.03;;;12.50;98.20;;;;;;5014667;28;20530;-78
2022/11/08 04:15:15;;;;;;;1.60;1.00;;;12.50;98.20;;;;;;5012158;28;20824;-77
2022/11/08 04:23:11;;;;;;;1.50;1.00;;;12.40;98.20;;;;;;4997247;28;20506;-77
2022/11/08 04:25:38;;;;;;;1.60;1.10;;;12.40;98.20;;;;;;5006698;28;21030;-77
2022/11/08 04:28:06;;;;;;;1.57;1.10;;;12.30;98.20;;;;;;5000262;28;20483;-78
2022/11/08 04:30:33;;;;;;;1.60;1.10;;;12.30;98.20;;;;;;5012299;28;20522;-78
2022/11/08 04:33:00;;;;;;;1.60;1.10;;;12.30;98.20;;;;;;5000252;28;20484;-77
2022/11/08 04:35:27;;;;;;;1.53;1.00;;;12.30;98.20;;;;;;5015178;28;20659;-77
2022/11/08 04:37:58;;;;;;;1.57;1.10;;;12.30;98.20;;;;;;5014529;28;20505;-78
2022/11/08 04:40:28;;;;;;;1.60;1.10;;;12.30;98.20;;;;;;5012726;28;20468;-78
2022/11/08 04:42:54;;;;;;;1.60;1.10;;;12.20;98.20;;;;;;5001119;28;20487;-78
2022/11/08 04:45:21;;;;;;;1.60;1.10;;;12.20;98.20;;;;;;5013010;28;20456;-77
2022/11/08 04:47:48;;;;;;;1.53;1.00;;;12.20;98.20;;;;;;4998597;28;20494;-77
2022/11/08 04:50:15;;;;;;;1.60;1.10;;;12.10;98.20;;;;;;5010145;28;20472;-79
2022/11/08 04:52:42;;;;;;;1.53;1.00;;;12.10;98.20;;;;;;4995461;28;20495;-77
2022/11/08 04:55:09;;;;;;;1.60;1.20;;;12.10;98.20;;;;;;5011691;28;20486;-77
2022/11/08 04:57:37;;;;;;;1.60;1.10;;;12.00;98.20;;;;;;4992102;28;20488;-78
2022/11/08 05:00:05;;;;;;;1.57;1.10;;;12.00;98.20;;;;;;5011716;28;20467;-77
2022/11/08 05:02:32;;;;;;;1.60;1.10;;;12.00;98.20;;;;;;4999180;28;20571;-78
2022/11/08 05:04:59;;;;;;;1.57;1.03;;;12.00;98.20;;;;;;4997711;28;20460;-78
2022/11/08 05:07:25;;;;;;;1.60;1.07;;;12.00;98.20;;;;;;5005354;28;20582;-79
2022/11/08 05:09:52;;;;;;;1.60;1.17;;;12.00;98.20;;;;;;4995601;28;20461;-77
2022/11/08 05:12:19;;;;;;;1.57;1.10;;;12.00;98.20;;;;;;5004405;28;20606;-78
2022/11/08 05:14:47;;;;;;;1.60;1.10;;;12.00;98.20;;;;;;5006568;28;20461;-76
2022/11/08 05:17:14;;;;;;;1.60;1.10;;;11.90;98.20;;;;;;4989315;28;20502;-80
2022/11/08 05:25:10;;;;;;;1.60;1.20;;;11.80;98.20;;;;;;5013077;28;20463;-78
2022/11/08 05:27:37;;;;;;;1.60;1.10;;;11.80;98.20;;;;;;5011363;28;20484;-79
2022/11/08 05:30:06;;;;;;;1.60;1.10;;;11.80;98.20;;;;;;4998585;28;20478;-79
2022/11/08 05:32:33;;;;;;;1.60;1.10;;;11.70;98.20;;;;;;5012664;28;20479;-79
2022/11/08 05:35:00;;;;;;;1.60;1.10;;;11.70;98.20;;;;;;5018398;28;20491;-78
2022/11/08 05:37:27;;;;;;;1.70;1.30;;;11.70;98.20;;;;;;5012112;28;20792;-76
2022/11/08 05:39:53;;;;;;;1.60;1.10;;;11.60;98.20;;;;;;5033541;28;20462;-79
2022/11/08 05:42:20;;;;;;;1.60;1.10;;;11.60;98.20;;;;;;5009587;28;20494;-80
2022/11/08 05:44:47;;;;;;;1.60;1.10;;;11.60;98.20;;;;;;4998245;28;20469;-78
2022/11/08 05:47:15;;;;;;;1.60;1.10;;;11.60;98.20;;;;;;5008164;28;20506;-78
2022/11/08 05:49:42;;;;;;;1.60;1.10;;;11.60;98.20;;;;;;5003106;28;20471;-78
2022/11/08 05:52:09;;;;;;;1.60;1.10;;;11.70;98.20;;;;;;4993766;28;20486;-77
2022/11/08 05:54:35;;;;;;;1.60;1.10;;;11.60;98.20;;;;;;5004977;28;20741;-78
2022/11/08 05:57:02;;;;;;;1.60;1.10;;;11.70;98.20;;;;;;5003733;28;20900;-78
2022/11/08 05:59:29;;;;;;;1.60;1.10;;;11.60;98.20;;;;;;5000393;28;20472;-78
2022/11/08 06:01:56;;;;;;;1.57;1.10;;;11.60;98.20;;;;;;5001084;28;20480;-79
2022/11/08 06:04:24;;;;;;;1.60;1.10;;;11.70;98.20;;;;;;5013113;28;20464;-78
2022/11/08 06:06:50;;;;;;;1.60;1.10;;;11.60;98.20;;;;;;5008016;28;20491;-78
2022/11/08 06:09:17;;;;;;;1.60;1.03;;;11.60;98.20;;;;;;4998879;28;20468;-77
2022/11/08 06:11:44;;;;;;;1.60;1.10;;;11.60;98.20;;;;;;4991397;28;20495;-76
2022/11/08 06:14:11;;;;;;;1.80;1.37;;;11.60;98.20;;;;;;5002955;28;20465;-76
2022/11/08 06:16:37;;;;;;;1.60;1.30;;;11.60;98.20;;;;;;4984539;28;20612;-77
2022/11/08 06:19:04;;;;;;;1.60;1.10;;;11.60;98.20;;;;;;4996213;28;20464;-76
2022/11/08 06:21:32;;;;;;;1.60;1.10;;;11.60;98.20;;;;;;4987766;28;20954;-78
2022/11/08 06:23:59;;;;;;;1.50;1.00;;;11.60;98.20;;;;;;5016684;28;20461;-75
2022/11/08 06:26:26;;;;;;;1.60;1.10;;;11.60;98.20;;;;;;4989284;28;20480;-77
2022/11/08 06:28:53;;;;;;;3.67;3.43;;;11.70;98.20;;;;;;5004055;28;20516;-78
2022/11/08 06:31:19;;;;;;;1.60;1.10;;;11.70;98.20;;;;;;4987670;28;20481;-77
2022/11/08 06:33:46;;;;;;;1.57;1.10;;;11.70;98.20;;;;;;5005024;28;20469;-77
2022/11/08 06:36:13;;;;;;;1.60;1.10;;;11.70;98.20;;;;;;4999878;28;20494;-77
2022/11/08 06:38:41;;;;;;;1.60;1.20;;;11.70;98.20;;;;;;5005344;28;20907;-78
2022/11/08 06:41:16;;;;;;;1.60;1.10;;;11.70;98.20;;;;;;4991642;28;20496;-78
2022/11/08 06:43:42;;;;;;;1.60;1.10;;;11.70;98.20;;;;;;5004942;28;20497;-78
2022/11/08 06:46:09;;;;;;;1.60;1.10;;;11.70;98.20;;;;;;4987535;28;20480;-79
2022/11/08 06:48:36;;;;;;;1.60;1.17;;;11.70;98.20;;;;;;5017137;28;20527;-77
2022/11/08 06:51:03;;;;;;;1.60;1.00;;;11.80;98.20;;;;;;4990982;28;20461;-79
2022/11/08 06:53:30;;;;;;;1.60;1.10;;;11.80;98.20;;;;;;5018424;28;20503;-78
2022/11/08 06:56:00;;;;;;;1.60;1.10;;;11.80;98.20;;;;;;4998501;28;20814;-77
2022/11/08 06:58:27;;;;;;;1.60;1.10;;;11.80;98.20;;;;;;5016235;28;20488;-77
2022/11/08 07:00:54;;;;;;;1.57;1.10;;;11.80;98.20;;;;;;5010626;28;20463;-77
2022/11/08 07:03:21;;;;;;;1.60;1.20;;;11.80;98.20;;;;;;5020255;28;20478;-78
2022/11/08 07:05:47;;;;;;;1.60;1.10;;;11.90;98.20;;;;;;4998976;28;20479;-77
2022/11/08 07:08:14;;;;;;;1.60;1.10;;;11.90;98.20;;;;;;5015765;28;20534;-78
2022/11/08 07:10:41;;;;;;;1.60;1.10;;;12.00;98.20;;;;;;5012635;28;21048;-80
2022/11/08 07:13:11;;;;;;;1.60;1.20;;;12.00;98.20;;;;;;5001276;28;20507;-79
2022/11/08 07:15:39;;;;;;;1.60;1.17;;;12.00;98.20;;;;;;5013822;28;20464;-80
2022/11/08 07:18:07;;;;;;;1.57;1.10;;;12.00;98.20;;;;;;5000316;28;20611;-80
2022/11/08 07:20:34;;;;;;;1.60;1.10;;;12.00;98.20;;;;;;4992792;28;20456;-76
2022/11/08 07:23:01;;;;;;;1.60;1.10;;;12.00;98.20;;;;;;5015674;28;20482;-79
2022/11/08 07:25:29;;;;;;;1.50;1.00;;;12.00;98.20;;;;;;5011059;28;20464;-75
2022/11/08 07:27:56;;;;;;;1.50;1.00;;;12.10;98.20;;;;;;4998709;28;20487;-76
2022/11/08 07:30:24;;;;;;;1.57;1.00;;;12.10;98.20;;;;;;4993095;28;20769;-77
2022/11/08 07:32:51;;;;;;;1.60;1.00;;;12.20;98.20;;;;;;5013199;28;20487;-76
2022/11/08 07:35:18;;;;;;;1.60;1.20;;;12.20;98.20;;;;;;5013399;28;20459;-77
2022/11/08 07:37:45;;;;;;;1.53;1.10;;;12.20;98.20;;;;;;5011199;28;20493;-78
2022/11/08 07:40:13;;;;;;;2.23;2.03;;;12.20;98.20;;;;;;5016782;28;20463;-78
2022/11/08 07:42:41;;;;;;;1.60;1.10;;;12.20;98.20;;;;;;5003786;28;20491;-82
2022/11/08 07:45:09;;;;;;;1.53;1.10;;;12.20;98.20;;;;;;4995590;28;20761;-80
2022/11/08 07:47:38;;;;;;;1.60;1.13;;;12.20;98.20;;;;;;4997384;28;20492;-78
2022/11/08 07:50:06;;;;;;;1.53;1.10;;;12.20;98.20;;;;;;4997931;28;20478;-80
2022/11/08 07:52:32;;;;;;;1.53;1.00;;;12.30;98.20;;;;;;5010733;28;20482;-79
2022/11/08 07:54:59;;;;;;;1.57;1.00;;;12.40;98.20;;;;;;5015450;28;20463;-79
2022/11/08 07:57:26;;;;;;;1.60;1.10;;;12.40;98.20;;;;;;4999089;28;20492;-78
2022/11/08 07:59:52;;;;;;;1.60;1.10;;;12.40;98.20;;;;;;5009212;28;20463;-78
2022/11/08 08:02:19;;;;;;;1.60;1.20;;;12.50;98.20;;;;;;4999434;28;20979;-77
2022/11/08 08:04:47;;;;;;;1.53;1.00;;;12.60;98.20;;;;;;4998431;28;20509;-77
2022/11/08 08:07:14;;;;;;;1.57;1.00;;;12.70;98.20;;;;;;5012294;28;20539;-77
2022/11/08 08:09:41;;;;;;;1.60;1.10;;;12.80;98.20;;;;;;5012126;28;20563;-79
2022/11/08 08:12:08;;;;;;;1.57;1.10;;;12.80;98.20;;;;;;4999534;28;20583;-77
2022/11/08 08:14:35;;;;;;;1.50;0.93;;;12.90;98.20;;;;;;5009100;28;20478;-77
2022/11/08 08:17:02;;;;;;;1.50;0.93;;;13.00;98.20;;;;;;5000609;28;20510;-77
2022/11/08 08:19:29;;;;;;;1.53;1.00;;;13.00;98.20;;;;;;4999391;28;20469;-79
2022/11/08 08:21:57;;;;;;;1.60;1.10;;;13.10;98.20;;;;;;5007902;28;20479;-77
2022/11/08 08:24:25;;;;;;;1.60;1.10;;;13.10;98.20;;;;;;5010639;28;20595;-78
2022/11/08 08:26:52;;;;;;;1.50;0.97;;;13.20;98.20;;;;;;5006153;28;20494;-78
2022/11/08 08:29:18;;;;;;;1.60;1.10;;;13.30;98.20;;;;;;5017534;28;20468;-78
2022/11/08 08:31:45;;;;;;;1.53;1.00;;;13.30;98.20;;;;;;5000678;28;20491;-77
2022/11/08 08:34:14;;;;;;;1.57;1.03;;;13.40;98.20;;;;;;5012077;28;20456;-78
2022/11/08 08:36:41;;;;;;;1.53;1.00;;;13.50;98.20;;;;;;5002162;28;20526;-77
2022/11/08 08:39:09;;;;;;;1.57;1.00;;;13.50;98.20;;;;;;5025897;28;20921;-78
2022/11/08 08:41:36;;;;;;;1.60;1.20;;;13.60;98.20;;;;;;5016701;28;20530;-77
2022/11/08 08:44:03;;;;;;;1.50;1.00;;;13.70;98.20;;;;;;5003962;28;21034;-80
2022/11/08 08:46:30;;;;;;;1.53;1.00;;;13.70;98.20;;;;;;5003580;28;20488;-77
2022/11/08 08:48:56;;;;;;;1.53;1.00;;;13.80;98.20;;;;;;5013183;28;20467;-76
2022/11/08 08:51:23;;;;;;;1.57;1.00;;;13.90;98.20;;;;;;5001550;28;20484;-77
2022/11/08 08:53:50;;;;;;;1.57;0.97;;;13.90;98.20;;;;;;5008930;28;20460;-79
2022/11/08 08:56:18;;;;;;;1.60;1.10;;;13.90;98.20;;;;;;5004077;28;20935;-79
2022/11/08 08:58:45;;;;;;;1.53;1.10;;;14.00;98.20;;;;;;5014004;28;20486;-77
2022/11/08 09:01:12;;;;;;;1.60;1.10;;;14.00;98.20;;;;;;5007470;28;20480;-77
2022/11/08 09:03:39;;;;;;;1.60;1.00;;;14.00;98.20;;;;;;5009546;28;20565;-78
2022/11/08 09:06:14;;;;;;;1.53;1.00;;;14.00;98.20;;;;;;4992964;28;20490;-77
2022/11/08 09:08:41;;;;;;;1.50;1.00;;;14.00;98.20;;;;;;5002991;28;20483;-77
2022/11/08 09:11:08;;;;;;;1.53;1.00;;;14.00;98.20;;;;;;4995924;28;20667;-77
2022/11/08 09:13:36;;;;;;;1.50;1.00;;;14.10;98.20;;;;;;5016404;28;20463;-77
2022/11/08 09:16:02;;;;;;;1.53;1.00;;;14.10;98.20;;;;;;5004776;28;20869;-77
2022/11/08 09:18:30;;;;;;;1.53;1.00;;;14.10;98.20;;;;;;5002587;28;20904;-77
2022/11/08 09:20:57;;;;;;;1.57;1.10;;;14.10;98.20;;;;;;4999129;28;20588;-76
2022/11/08 09:23:24;;;;;;;1.57;1.00;;;14.10;98.20;;;;;;5001355;28;20494;-78
2022/11/08 09:25:57;;;;;;;1.60;1.10;;;14.10;98.20;;;;;;4994578;28;20487;-77
2022/11/08 09:28:24;;;;;;;1.53;1.00;;;14.10;98.20;;;;;;5009700;28;21840;-79
2022/11/08 09:30:52;;;;;;;1.53;1.00;;;14.00;98.20;;;;;;4988537;28;20962;-77
2022/11/08 09:33:19;;;;;;;1.53;1.00;;;14.10;98.20;;;;;;5013939;28;20980;-79
2022/11/08 09:35:46;;;;;;;1.50;1.00;;;14.00;98.20;;;;;;5007334;28;20464;-77
2022/11/08 09:38:12;;;;;;;1.53;1.00;;;14.00;98.20;;;;;;4999872;28;20479;-77
2022/11/08 09:40:44;;;;;;;1.50;1.00;;;14.00;98.20;;;;;;4995476;28;20496;-77
2022/11/08 09:43:32;;;;;;;1.50;1.00;;;14.00;98.20;;;;;;4987793;28;20476;-77
2022/11/08 09:46:01;;;;;;;1.60;1.10;;;14.00;98.20;;;;;;5001703;28;20489;-77
2022/11/08 09:48:32;;;;;;;1.60;1.23;;;14.00;98.20;;;;;;4996452;28;20850;-78
2022/11/08 09:51:05;;;;;;;1.60;1.17;;;14.00;98.20;;;;;;4986863;28;20461;-78
2022/11/08 09:53:38;;;;;;;1.53;1.00;;;14.10;98.20;;;;;;5007853;28;20469;-75
2022/11/08 09:56:11;;;;;;;1.60;1.10;;;14.10;98.20;;;;;;4992048;28;20490;-78
2022/11/08 09:58:43;;;;;;;1.53;1.00;;;14.10;98.20;;;;;;5005897;28;20473;-76
2022/11/08 10:01:13;;;;;;;1.50;1.00;;;14.20;98.20;;;;;;4990259;28;20491;-78
2022/11/08 10:03:45;;;;;;;1.70;1.43;;;14.20;98.20;;;;;;5007690;28;20496;-78
2022/11/08 10:06:31;;;;;;;1.53;1.00;;;14.20;98.20;;;;;;4994898;28;20499;-78
2022/11/08 10:09:10;;;;;;;1.60;1.30;;;14.30;98.20;;;;;;5010388;28;20473;-77
2022/11/08 10:11:48;;;;;;;1.53;1.00;;;14.30;98.20;;;;;;4997393;28;20797;-78
2022/11/08 10:14:28;;;;;;;1.57;0.90;;;14.30;98.20;;;;;;5000717;28;20468;-76
2022/11/08 10:17:11;;;;;;;1.50;1.00;;;14.30;98.20;;;;;;4996942;28;20487;-78
2022/11/08 10:19:57;;;;;;;1.57;1.00;;;14.40;98.20;;;;;;5002685;28;21060;-76
2022/11/08 10:22:31;;;;;;;1.53;1.03;;;14.40;98.20;;;;;;5002954;28;20480;-77
2022/11/08 10:25:01;;;;;;;1.57;1.00;;;14.40;98.20;;;;;;5001494;28;20511;-77
2022/11/08 10:27:36;;;;;;;1.50;1.00;;;14.40;98.20;;;;;;5008947;28;20479;-79
2022/11/08 10:30:06;;;;;;;1.60;1.10;;;14.50;98.20;;;;;;4998907;28;20999;-77
2022/11/08 10:32:35;;;;;;;1.50;0.93;;;14.50;98.20;;;;;;5004673;28;20474;-79
2022/11/08 10:35:09;;;;;;;1.50;1.00;;;14.50;98.20;;;;;;5016648;28;20461;-78
2022/11/08 10:37:36;;;;;;;1.60;1.00;;;14.60;98.20;;;;;;5000702;28;20522;-77
2022/11/08 10:40:15;;;;;;;1.70;1.37;;;14.60;98.20;;;;;;4999349;28;20472;-76
2022/11/08 10:42:45;;;;;;;1.60;1.10;;;14.60;98.20;;;;;;5005629;28;20476;-76
2022/11/08 10:45:12;;;;;;;1.50;0.90;;;14.70;98.20;;;;;;5004544;28;20460;-79
2022/11/08 10:47:41;;;;;;;1.60;1.00;;;14.70;98.20;;;;;;5000672;28;20484;-78
2022/11/08 10:50:14;;;;;;;1.60;1.00;;;14.80;98.20;;;;;;4999013;28;20579;-78
2022/11/08 10:52:45;;;;;;;1.53;1.00;;;14.90;98.20;;;;;;5000934;28;20554;-77
2022/11/08 10:55:27;;;;;;;1.57;1.00;;;14.90;98.10;;;;;;5009891;28;20461;-79
2022/11/08 10:57:54;;;;;;;1.57;1.00;;;15.00;97.70;;;;;;5004067;28;20494;-77
2022/11/08 11:00:29;;;;;;;1.50;1.00;;;15.00;97.70;;;;;;5001153;28;20473;-76
2022/11/08 11:02:59;;;;;;;1.60;1.00;;;15.10;98.10;;;;;;5009742;28;20969;-78
2022/11/08 11:05:32;;;;;;;1.60;1.00;;;15.20;97.30;;;;;;5006678;28;20964;-77
2022/11/08 11:08:12;;;;;;;1.80;1.60;;;15.20;97.70;;;;;;4997798;28;20491;-78
2022/11/08 11:10:41;;;;;;;1.50;0.97;;;15.40;97.80;;;;;;5003082;28;20861;-77
2022/11/08 11:13:11;;;;;;;1.53;1.00;;;15.60;97.00;;;;;;4983738;28;20505;-77
2022/11/08 11:15:44;;;;;;;1.60;1.00;;;15.70;96.10;;;;;;4991079;28;21132;-76
2022/11/08 11:18:29;;;;;;;1.57;1.00;;;15.90;96.40;;;;;;4999173;28;20481;-76
2022/11/08 11:21:07;;;;;;;1.60;1.00;;;16.00;95.50;;;;;;4984332;28;20467;-76
2022/11/08 11:23:40;;;;;;;1.60;1.00;;;16.00;95.20;;;;;;5015283;28;20870;-76
2022/11/08 11:26:08;;;;;;;1.60;0.97;;;16.00;95.30;;;;;;4983725;28;20485;-77
2022/11/08 11:28:35;;;;;;;1.50;1.00;;;16.00;96.20;;;;;;4993587;28;20479;-79
2022/11/08 11:31:11;;;;;;;1.50;0.90;;;16.10;96.20;;;;;;4987886;28;20617;-78
2022/11/08 11:33:46;;;;;;;1.53;1.00;;;16.10;95.90;;;;;;5016838;28;20452;-76
2022/11/08 11:36:15;;;;;;;1.60;1.00;;;16.20;95.70;;;;;;5002127;28;20859;-78
2022/11/08 11:38:49;;;;;;;1.53;0.90;;;16.40;95.40;;;;;;5005939;28;20460;-77
2022/11/08 11:41:21;;;;;;;1.53;1.00;;;16.40;94.90;;;;;;5000818;28;20476;-76
2022/11/08 11:44:06;;;;;;;1.50;1.00;;;16.40;95.00;;;;;;5015838;28;21014;-77
2022/11/08 11:46:39;;;;;;;1.57;1.00;;;16.40;95.30;;;;;;4988947;28;20945;-76
2022/11/08 11:49:21;;;;;;;1.57;1.00;;;16.30;95.80;;;;;;5003700;28;20471;-76
2022/11/08 11:51:51;;;;;;;1.50;1.00;;;16.30;95.30;;;;;;4993088;28;20480;-78
2022/11/08 11:54:18;;;;;;;1.50;1.00;;;16.40;95.40;;;;;;5001508;28;20464;-78
2022/11/08 11:56:53;;;;;;;1.50;1.00;;;16.50;95.20;;;;;;4993140;28;20480;-77
2022/11/08 11:59:31;;;;;;;1.50;0.90;;;16.60;94.70;;;;;;5007543;28;20464;-78
2022/11/08 12:02:34;;;;;;;1.53;1.00;;;16.80;93.60;;;;;;4998369;28;20483;-77
2022/11/08 12:05:20;;;;;;;1.57;1.00;;;16.70;93.60;;;;;;4998511;28;20492;-78
2022/11/08 12:07:58;;;;;;;1.53;0.90;;;16.70;93.70;;;;;;5001614;28;20483;-75
2022/11/08 12:10:46;;;;;;;1.50;0.90;;;16.70;94.20;;;;;;5007636;28;20880;-76
2022/11/08 12:13:21;;;;;;;2.10;1.87;;;16.80;94.50;;;;;;5002758;28;20568;-77
2022/11/08 12:15:53;;;;;;;1.57;1.00;;;16.90;93.40;;;;;;4982739;28;20551;-80
2022/11/08 12:18:38;;;;;;;1.57;1.00;;;17.00;94.10;;;;;;5009779;28;20970;-78
2022/11/08 12:21:13;;;;;;;1.60;0.97;;;17.10;94.00;;;;;;4989161;28;20465;-78
2022/11/08 12:24:14;;;;;;;1.50;0.90;;;17.20;93.50;;;;;;5000842;28;20519;-77
2022/11/08 12:26:50;;;;;;;1.53;1.00;;;17.30;93.90;;;;;;4982139;28;20488;-77
2022/11/08 12:29:24;;;;;;;1.50;0.90;;;17.40;93.60;;;;;;4999805;28;20490;-76
2022/11/08 12:32:04;;;;;;;1.50;0.90;;;17.60;93.00;;;;;;4992029;28;20476;-77
2022/11/08 12:34:42;;;;;;;1.53;0.97;;;17.70;93.20;;;;;;4992694;28;20472;-75
2022/11/08 12:37:18;;;;;;;1.50;1.00;;;17.80;93.20;;;;;;4993135;28;20487;-76
2022/11/08 12:39:49;;;;;;;1.50;0.90;;;17.90;93.30;;;;;;4990273;28;20844;-76
2022/11/08 12:42:42;;;;;;;1.50;1.00;;;17.90;93.20;;;;;;4989360;28;20851;-75
2022/11/08 12:45:48;;;;;;;1.50;0.90;;;17.80;92.40;;;;;;4989741;28;20489;-76
2022/11/08 12:48:26;;;;;;;1.50;1.00;;;17.60;92.60;;;;;;4971145;28;20561;-77
2022/11/08 12:51:00;;;;;;;1.50;1.00;;;17.60;93.30;;;;;;4985774;28;20551;-79
2022/11/08 12:53:55;;;;;;;1.60;1.30;;;17.50;93.00;;;;;;5007376;28;20483;-77
2022/11/08 12:56:27;;;;;;;1.53;1.00;;;17.40;94.00;;;;;;4984800;28;20529;-76
2022/11/08 12:58:54;;;;;;;1.60;1.10;;;17.20;94.10;;;;;;5004819;28;20467;-76
2022/11/08 13:01:23;;;;;;;1.90;1.10;;;17.10;94.20;;;;;;4998311;28;20841;-77
2022/11/08 13:04:19;;;;;;;1.50;0.97;;;17.00;94.60;;;;;;4990402;28;20499;-79
2022/11/08 13:06:51;;;;;;;1.60;0.97;;;17.00;94.90;;;;;;4993335;28;20488;-77
2022/11/08 13:09:30;;;;;;;1.53;0.90;;;17.00;95.20;;;;;;4997557;28;20463;-78
2022/11/08 13:12:06;;;;;;;1.50;0.90;;;17.00;95.30;;;;;;4990441;28;20525;-77
2022/11/08 13:14:34;;;;;;;1.53;1.00;;;17.00;95.10;;;;;;4997109;28;20464;-78
2022/11/08 13:17:18;;;;;;;1.53;1.00;;;16.90;95.20;;;;;;4992384;28;20523;-76
2022/11/08 13:20:00;;;;;;;1.53;1.00;;;16.90;95.30;;;;;;4996997;28;20468;-78
2022/11/08 13:22:46;;;;;;;1.50;0.90;;;16.90;95.20;;;;;;5007514;28;20487;-76
2022/11/08 13:25:37;;;;;;;1.53;1.00;;;16.90;95.70;;;;;;5007646;28;20545;-76